Beaumont, Belgium
Current Conditions -  °F | °C
As of 5:03 PM on Thursday 23 Oct 2014 (Local Time) from EBFS Reporting Station
Broken Clouds Broken Clouds  
Wind Chill: 52°   Ceiling: 3600
Heat Index: 52°   Visibility: 6mi
Dew Point: 48°   Wind: 7mph
Humidity: 88%   Direction: 190°S
Pressure: 30.21"   Gusts: NA
Location:  50.24°N, 4.24°E
Report Text: EBFS 231503Z 19006KT 9999 FEW010 BKN036 11/09 Q1023 BLU FCST CANCEL
Loading
Personal Weather Stations






























Interactive Weather Map
Tropical Storm Tracking
New forecast layout! Learn more

10-Day Weather Forecast

Advertisements
Track Severe Weather on mobile